Duncan, OK

4:54 PM CDT on April 27, 2017 (GMT -0500)
Halliburton

Weather History for KDUC - April, 2013

Change the Weather History Date:

Tuesday, April 23, 2013

  Actual Average (KLAW) Record (KLAW)
Temperature  
Mean Temperature 52 °F -  
Max Temperature 66 °F 76 °F 95 °F (2009)
Min Temperature 37 °F 51 °F 36 °F (2013)
Degree Days  
Heating Degree Days 14    
Growing Degree Days 2 (Base 50)    
Moisture  
Dew Point 40 °F    
Average Humidity 86    
Maximum Humidity 100    
Minimum Humidity 75    
Precipitation  
Precipitation 0.00 in - - ()
Sea Level Pressure  
Sea Level Pressure 30.03 in    
Wind  
Wind Speed 15 mph (North)    
Max Wind Speed 24 mph    
Max Gust Speed 34 mph    
Visibility 10 miles    
Events      
Averages and records for this station are not official NWS values.
T = Trace of Precipitation, MM = Missing Value Source: NWS Daily Summary

Daily Weather History Graph

Daily Weather History Graph

Search for Another Location

Airport or City:

Trip Planner

Search our weather history database for the weather conditions in past years. The results will help you decide how hot, cold, wet, or windy it might be!

Date:

Astronomy

Apr. 23, 2013 Rise Set
Actual Time 6:50 AM CDT 8:10 PM CDT
Civil Twilight 6:24 AM CDT 8:36 PM CDT
Nautical Twilight 5:52 AM CDT 9:08 PM CDT
Astronomical Twilight 5:19 AM CDT 9:41 PM CDT
Moon 6:11 PM CDT (4/23) 5:13 AM CDT (4/23)
Length of Visible Light 14h 12m
Length of Day
13h 19m
Waxing Gibbous, 94% of the Moon is Illuminated
Apr 23
Waxing Gibbous
Apr 25
Full
May 2
Last Quarter
May 9
New
May 17
First Quarter

Hourly Weather History & Observations

Time (CDT) Temp. Windchill Dew Point Humidity Pressure Visibility Wind Dir Wind Speed Gust Speed Precip Events Conditions
12:15 AM 66.2 °F - 59.0 °F 78% 29.77 in 10.0 mi SSE 15.0 mph - N/A   Clear
12:35 AM 66.2 °F - 59.0 °F 78% 29.77 in 10.0 mi SSE 17.3 mph 20.7 mph N/A   Clear
12:55 AM 64.4 °F - 59.0 °F 83% 29.77 in 10.0 mi SSE 13.8 mph 18.4 mph N/A   Clear
1:15 AM 64.4 °F - 59.0 °F 83% 29.79 in 10.0 mi East 8.1 mph - N/A   Clear
1:35 AM 64.4 °F - 59.0 °F 83% 29.80 in 10.0 mi East 10.4 mph - N/A   Clear
1:55 AM 64.4 °F - 59.0 °F 83% 29.84 in 10.0 mi ENE 6.9 mph - N/A   Clear
2:15 AM 62.6 °F - 59.0 °F 88% 29.82 in 10.0 mi ESE 8.1 mph - N/A   Clear
2:35 AM 62.6 °F - 59.0 °F 88% 29.80 in 10.0 mi ESE 9.2 mph - N/A   Clear
2:55 AM 62.6 °F - 59.0 °F 88% 29.81 in 10.0 mi East 6.9 mph - N/A   Clear
3:15 AM 60.8 °F - 59.0 °F 94% 29.81 in 10.0 mi ENE 5.8 mph - N/A   Clear
3:35 AM 60.8 °F - 59.0 °F 94% 29.81 in 10.0 mi NE 4.6 mph - N/A   Clear
3:55 AM 60.8 °F - 59.0 °F 94% 29.82 in 10.0 mi North 5.8 mph - N/A   Scattered Clouds
4:15 AM 55.4 °F - 51.8 °F 88% 29.84 in 10.0 mi North 13.8 mph 24.2 mph N/A   Overcast
4:35 AM 50.0 °F - 46.4 °F 87% 29.87 in 10.0 mi North 17.3 mph 24.2 mph N/A   Mostly Cloudy
4:55 AM 46.4 °F 39.8 °F 44.6 °F 93% 29.88 in 10.0 mi North 16.1 mph 20.7 mph N/A   Overcast
5:15 AM 44.6 °F 37.4 °F 42.8 °F 93% 29.89 in 10.0 mi North 16.1 mph 25.3 mph N/A   Overcast
5:35 AM 42.8 °F 34.3 °F 41.0 °F 93% 29.89 in 10.0 mi North 19.6 mph 24.2 mph N/A   Overcast
5:55 AM 42.8 °F 34.8 °F 41.0 °F 93% 29.90 in 10.0 mi North 17.3 mph 31.1 mph N/A   Overcast
6:15 AM 42.8 °F 34.0 °F 41.0 °F 93% 29.92 in 10.0 mi North 20.7 mph 27.6 mph N/A   Overcast
6:35 AM 41.0 °F 31.9 °F 37.4 °F 87% 29.93 in 10.0 mi North 19.6 mph 32.2 mph N/A   Overcast
6:55 AM 41.0 °F 32.8 °F 37.4 °F 87% 29.95 in 10.0 mi North 16.1 mph 26.5 mph N/A   Overcast
7:15 AM 41.0 °F 31.4 °F 37.4 °F 87% 29.95 in 10.0 mi North 21.9 mph 34.5 mph N/A   Overcast
7:35 AM 41.0 °F 32.5 °F 37.4 °F 87% 29.97 in 10.0 mi North 17.3 mph 33.4 mph N/A   Overcast
7:55 AM 41.0 °F 32.5 °F 37.4 °F 87% 29.97 in 10.0 mi North 17.3 mph 31.1 mph N/A   Overcast
8:15 AM 39.2 °F 28.5 °F 37.4 °F 93% 29.99 in 10.0 mi North 24.2 mph 31.1 mph N/A   Overcast
8:35 AM 37.4 °F 26.9 °F 37.4 °F 100% 30.00 in 10.0 mi North 20.7 mph 31.1 mph N/A   Overcast
8:55 AM 39.2 °F 29.8 °F 37.4 °F 93% 30.01 in 10.0 mi North 18.4 mph 29.9 mph N/A   Overcast
9:15 AM 39.2 °F 29.6 °F 37.4 °F 93% 30.02 in 10.0 mi North 19.6 mph 24.2 mph N/A   Overcast
9:35 AM 37.4 °F 26.6 °F 37.4 °F 100% 30.03 in 10.0 mi North 21.9 mph 28.8 mph N/A   Overcast
9:55 AM 37.4 °F 27.5 °F 37.4 °F 100% 30.04 in 10.0 mi North 18.4 mph 29.9 mph N/A   Overcast
10:15 AM 37.4 °F 26.4 °F 35.6 °F 93% 30.06 in 10.0 mi North 23.0 mph 31.1 mph N/A   Overcast
10:35 AM 39.2 °F 29.8 °F 35.6 °F 87% 30.07 in 10.0 mi North 18.4 mph 25.3 mph N/A   Overcast
10:55 AM 37.4 °F 28.2 °F 35.6 °F 93% 30.09 in 10.0 mi North 16.1 mph 26.5 mph N/A   Overcast
11:15 AM 39.2 °F 29.8 °F 35.6 °F 87% 30.10 in 10.0 mi North 18.4 mph 28.8 mph N/A   Overcast
11:35 AM 39.2 °F 29.8 °F 35.6 °F 87% 30.10 in 10.0 mi North 18.4 mph 28.8 mph N/A   Overcast
11:55 AM 39.2 °F 29.8 °F 35.6 °F 87% 30.10 in 10.0 mi North 18.4 mph 28.8 mph N/A   Overcast
12:15 PM 39.2 °F 29.6 °F 35.6 °F 87% 30.10 in 10.0 mi North 19.6 mph 24.2 mph N/A   Overcast
12:55 PM 41.0 °F 32.5 °F 35.6 °F 81% 30.11 in 10.0 mi North 17.3 mph 24.2 mph N/A   Overcast
1:15 PM 41.0 °F 32.5 °F 35.6 °F 81% 30.10 in 10.0 mi North 17.3 mph 24.2 mph N/A   Overcast
1:35 PM 41.0 °F 33.9 °F 35.6 °F 81% 30.09 in 10.0 mi North 12.7 mph 21.9 mph N/A   Overcast
1:55 PM 41.0 °F 33.5 °F 35.6 °F 81% 30.09 in 10.0 mi North 13.8 mph 25.3 mph N/A   Overcast
2:15 PM 42.8 °F 34.5 °F 35.6 °F 76% 30.10 in 10.0 mi North 18.4 mph 21.9 mph N/A   Overcast
2:35 PM 41.0 °F 32.5 °F 35.6 °F 81% 30.09 in 10.0 mi North 17.3 mph 26.5 mph N/A   Overcast
2:55 PM 41.0 °F 32.8 °F 35.6 °F 81% 30.09 in 10.0 mi North 16.1 mph 20.7 mph N/A   Overcast
3:15 PM 41.0 °F 32.5 °F 35.6 °F 81% 30.09 in 10.0 mi North 17.3 mph 26.5 mph N/A   Overcast
3:35 PM 42.8 °F 35.4 °F 35.6 °F 76% 30.10 in 10.0 mi North 15.0 mph - N/A   Overcast
3:55 PM 41.0 °F 32.8 °F 35.6 °F 81% 30.10 in 10.0 mi North 16.1 mph 23.0 mph N/A   Overcast
4:15 PM 41.0 °F 33.1 °F 35.6 °F 81% 30.10 in 10.0 mi NNE 15.0 mph 23.0 mph N/A   Overcast
4:35 PM 41.0 °F 33.1 °F 35.6 °F 81% 30.09 in 10.0 mi North 15.0 mph 24.2 mph N/A   Overcast
4:55 PM 41.0 °F 32.5 °F 35.6 °F 81% 30.10 in 10.0 mi North 17.3 mph 23.0 mph N/A   Overcast
5:15 PM 41.0 °F 32.8 °F 35.6 °F 81% 30.10 in 10.0 mi NNE 16.1 mph 23.0 mph N/A   Overcast
5:35 PM 41.0 °F 33.5 °F 35.6 °F 81% 30.11 in 10.0 mi North 13.8 mph 21.9 mph N/A   Overcast
5:55 PM 39.2 °F 30.5 °F 35.6 °F 87% 30.12 in 10.0 mi North 16.1 mph 24.2 mph N/A   Overcast
6:15 PM 41.0 °F 33.5 °F 33.8 °F 76% 30.12 in 10.0 mi North 13.8 mph 23.0 mph N/A   Overcast
6:35 PM 41.0 °F 33.5 °F 33.8 °F 76% 30.13 in 10.0 mi North 13.8 mph 19.6 mph N/A   Overcast
6:55 PM 39.2 °F 31.2 °F 33.8 °F 81% 30.13 in 10.0 mi North 13.8 mph 26.5 mph N/A   Overcast
7:15 PM 39.2 °F 29.8 °F 33.8 °F 81% 30.13 in 10.0 mi North 18.4 mph 24.2 mph N/A   Overcast
7:35 PM 37.4 °F 28.5 °F 33.8 °F 87% 30.13 in 10.0 mi North 15.0 mph 26.5 mph N/A   Overcast
7:55 PM 37.4 °F 28.5 °F 33.8 °F 87% 30.13 in 10.0 mi North 15.0 mph 24.2 mph N/A   Overcast
8:15 PM 37.4 °F 29.3 °F 33.8 °F 87% 30.15 in 10.0 mi North 12.7 mph 20.7 mph N/A   Overcast
8:35 PM 37.4 °F 28.5 °F 33.8 °F 87% 30.16 in 10.0 mi North 15.0 mph 25.3 mph N/A   Overcast
8:55 PM 37.4 °F 28.2 °F 33.8 °F 87% 30.17 in 10.0 mi North 16.1 mph 26.5 mph N/A   Overcast
9:15 PM 37.4 °F 27.8 °F 33.8 °F 87% 30.19 in 10.0 mi North 17.3 mph 27.6 mph N/A   Overcast
9:35 PM 37.4 °F 26.9 °F 32.0 °F 81% 30.21 in 10.0 mi North 20.7 mph 25.3 mph N/A   Overcast
9:55 PM 37.4 °F 28.9 °F 32.0 °F 81% 30.22 in 10.0 mi North 13.8 mph 19.6 mph N/A   Overcast
10:15 PM 37.4 °F 28.2 °F 32.0 °F 81% 30.23 in 10.0 mi North 16.1 mph 20.7 mph N/A   Overcast
10:35 PM 37.4 °F 29.3 °F 32.0 °F 81% 30.24 in 10.0 mi North 12.7 mph 20.7 mph N/A   Overcast
10:55 PM 37.4 °F 27.8 °F 32.0 °F 81% 30.24 in 10.0 mi North 17.3 mph 20.7 mph N/A   Overcast
11:15 PM 37.4 °F 27.5 °F 32.0 °F 81% 30.24 in 10.0 mi North 18.4 mph 21.9 mph N/A   Overcast
11:35 PM 37.4 °F 29.3 °F 32.0 °F 81% 30.24 in 10.0 mi North 12.7 mph 17.3 mph N/A   Overcast
11:55 PM 37.4 °F 30.3 °F 30.2 °F 75% 30.26 in 10.0 mi North 10.4 mph 19.6 mph N/A   Mostly Cloudy